createdAt,value
2022-12-07T00:02:25.169Z,5.25
2022-12-07T00:05:27.777Z,4.90
2022-12-07T00:08:30.697Z,4.15
2022-12-07T00:11:33.335Z,5.45
2022-12-07T00:14:37.998Z,4.72
2022-12-07T00:17:40.544Z,4.68
2022-12-07T00:20:44.301Z,4.90
2022-12-07T00:23:47.366Z,5.10
2022-12-07T00:26:49.964Z,5.38
2022-12-07T00:29:54.984Z,5.68
2022-12-07T00:32:57.525Z,5.50
2022-12-07T00:36:00.772Z,5.18
2022-12-07T00:39:03.332Z,5.30
2022-12-07T00:42:06.372Z,5.20
2022-12-07T00:45:10.956Z,5.25
2022-12-07T00:48:13.527Z,4.78
2022-12-07T00:51:17.122Z,5.28
2022-12-07T00:54:19.707Z,4.82
2022-12-07T00:57:22.288Z,4.90
2022-12-07T01:00:26.282Z,5.05
2022-12-07T01:03:28.825Z,4.65
2022-12-07T01:06:32.163Z,4.82
2022-12-07T01:09:34.700Z,4.95
2022-12-07T01:12:37.898Z,5.65
2022-12-07T01:15:42.669Z,5.45
2022-12-07T01:18:47.688Z,5.82
2022-12-07T01:21:50.263Z,5.10
2022-12-07T01:24:52.870Z,5.18
2022-12-07T01:27:55.421Z,5.38
2022-12-07T01:31:00.643Z,5.32
2022-12-07T01:34:03.312Z,5.30
2022-12-07T01:37:06.009Z,4.47
2022-12-07T01:40:09.596Z,4.47
2022-12-07T01:43:16.762Z,4.43
2022-12-07T01:46:20.663Z,4.78
2022-12-07T01:49:25.175Z,4.70
2022-12-07T01:52:29.881Z,4.28
2022-12-07T01:55:32.572Z,4.38
2022-12-07T01:58:35.469Z,3.85
2022-12-07T02:01:39.494Z,4.15
2022-12-07T02:04:42.100Z,4.55
2022-12-07T02:07:44.818Z,4.07
2022-12-07T02:10:47.798Z,4.00
2022-12-07T02:13:50.455Z,4.28
2022-12-07T02:17:02.256Z,4.38
2022-12-07T02:20:19.625Z,3.70
2022-12-07T02:23:33.527Z,3.58
2022-12-07T02:26:50.497Z,3.53
2022-12-07T02:29:58.707Z,3.97
2022-12-07T02:33:05.144Z,3.80
2022-12-07T02:36:10.473Z,3.47
2022-12-07T02:39:16.995Z,3.03
2022-12-07T02:42:21.530Z,3.55
2022-12-07T02:45:27.702Z,2.88
2022-12-07T02:48:30.736Z,3.47
2022-12-07T02:51:33.652Z,2.95
2022-12-07T02:54:36.180Z,3.10
2022-12-07T02:57:44.154Z,3.30
2022-12-07T03:00:53.948Z,3.55
2022-12-07T03:04:00.992Z,2.65
2022-12-07T03:07:05.837Z,3.00
2022-12-07T03:10:10.791Z,2.67
2022-12-07T03:13:15.241Z,2.58
2022-12-07T03:16:20.168Z,2.78
2022-12-07T03:19:24.478Z,2.13
2022-12-07T03:22:29.884Z,2.30
2022-12-07T03:25:32.735Z,2.17
2022-12-07T03:28:36.907Z,2.20
2022-12-07T03:31:42.421Z,2.17
2022-12-07T03:34:48.060Z,1.70
2022-12-07T03:37:53.156Z,1.60
2022-12-07T03:40:59.623Z,1.73
2022-12-07T03:44:02.576Z,1.50
2022-12-07T03:47:08.602Z,1.00
2022-12-07T03:50:13.508Z,1.60
2022-12-07T03:53:17.431Z,1.60
2022-12-07T03:56:20.467Z,1.42
2022-12-07T03:59:23.443Z,1.17
2022-12-07T04:02:28.903Z,1.08
2022-12-07T04:05:31.927Z,1.30
2022-12-07T04:08:34.489Z,1.10
2022-12-07T04:11:36.976Z,1.05
2022-12-07T04:14:39.469Z,0.98
2022-12-07T04:17:43.323Z,0.95
2022-12-07T04:20:45.793Z,1.20
2022-12-07T04:23:48.442Z,0.93
2022-12-07T04:26:52.113Z,1.30
2022-12-07T04:29:56.450Z,1.13
2022-12-07T04:33:00.532Z,1.05
2022-12-07T04:36:03.136Z,1.08
2022-12-07T04:39:06.553Z,0.90
2022-12-07T04:42:09.337Z,1.00
2022-12-07T04:45:12.142Z,1.08
2022-12-07T04:48:16.096Z,0.90
2022-12-07T04:51:20.687Z,0.77
2022-12-07T04:54:23.250Z,0.88
2022-12-07T04:57:25.826Z,1.00
2022-12-07T05:00:28.388Z,1.00
2022-12-07T05:03:32.474Z,0.93
2022-12-07T05:06:35.334Z,0.90
2022-12-07T05:09:37.932Z,0.98
2022-12-07T05:12:40.581Z,0.95
2022-12-07T05:15:44.555Z,1.10
2022-12-07T05:18:48.428Z,0.90
2022-12-07T05:21:51.132Z,1.00
2022-12-07T05:24:53.954Z,1.02
2022-12-07T05:27:56.886Z,0.82
2022-12-07T05:31:00.078Z,0.75
2022-12-07T05:34:04.131Z,0.85
2022-12-07T05:37:06.764Z,1.05
2022-12-07T05:40:10.124Z,0.90
2022-12-07T05:43:12.930Z,1.17
2022-12-07T05:46:15.582Z,1.00
2022-12-07T05:49:19.703Z,1.10
2022-12-07T05:52:22.316Z,1.10
2022-12-07T05:55:25.009Z,0.95
2022-12-07T05:58:45.354Z,1.13
2022-12-07T06:01:48.084Z,0.98
2022-12-07T06:04:52.388Z,0.85
2022-12-07T06:07:55.064Z,1.10
2022-12-07T06:11:11.630Z,0.85
2022-12-07T06:14:14.259Z,0.85
2022-12-07T06:17:17.045Z,1.45
2022-12-07T06:20:20.999Z,0.98
2022-12-07T06:23:24.035Z,1.15
2022-12-07T06:26:26.617Z,1.35
2022-12-07T06:29:29.472Z,1.20
2022-12-07T06:32:32.119Z,0.93
2022-12-07T06:35:36.306Z,1.20
2022-12-07T06:38:53.129Z,1.20
2022-12-07T06:41:55.988Z,1.42
2022-12-07T06:44:58.629Z,1.38
2022-12-07T06:48:01.445Z,1.30
2022-12-07T06:51:05.958Z,1.23
2022-12-07T06:54:09.634Z,1.08
2022-12-07T06:57:12.363Z,1.63
2022-12-07T07:00:21.504Z,1.33
2022-12-07T07:03:25.325Z,1.52
2022-12-07T07:06:29.980Z,1.38
2022-12-07T07:09:32.688Z,1.90
2022-12-07T07:12:35.679Z,1.30
2022-12-07T07:15:39.428Z,1.35
2022-12-07T07:18:42.407Z,1.30
2022-12-07T07:21:50.506Z,1.45
2022-12-07T07:24:56.170Z,1.30
2022-12-07T07:28:04.178Z,1.38
2022-12-07T07:31:07.561Z,1.35
2022-12-07T07:34:12.763Z,1.38
2022-12-07T07:37:21.775Z,1.25
2022-12-07T07:40:28.227Z,1.65
2022-12-07T07:43:31.289Z,1.23
2022-12-07T07:46:34.436Z,1.05
2022-12-07T07:49:37.578Z,1.30
2022-12-07T07:52:42.029Z,1.08
2022-12-07T07:55:55.746Z,1.35
2022-12-07T07:58:58.780Z,1.52
2022-12-07T08:02:01.774Z,1.13
2022-12-07T08:05:10.675Z,1.20
2022-12-07T08:08:15.258Z,1.25
2022-12-07T08:11:18.393Z,1.20
2022-12-07T08:14:21.440Z,1.08
2022-12-07T08:17:27.034Z,1.10
2022-12-07T08:20:33.282Z,1.10
2022-12-07T08:23:40.078Z,0.93
2022-12-07T08:26:45.123Z,1.50
2022-12-07T08:29:51.655Z,0.90
2022-12-07T08:32:54.603Z,1.00
2022-12-07T08:36:05.922Z,0.80
2022-12-07T08:42:38.736Z,0.85
2022-12-07T08:45:42.696Z,0.98
2022-12-07T08:48:46.824Z,1.08
2022-12-07T08:51:49.904Z,0.88
2022-12-07T08:54:54.027Z,0.88
2022-12-07T08:57:57.147Z,0.82
2022-12-07T09:00:59.802Z,0.75
2022-12-07T09:04:02.565Z,0.70
2022-12-07T09:07:05.883Z,0.80
2022-12-07T09:10:10.612Z,0.90
2022-12-07T09:13:13.374Z,0.65
2022-12-07T09:16:16.296Z,0.95
2022-12-07T09:19:22.403Z,1.00
2022-12-07T09:22:25.594Z,1.10
2022-12-07T09:25:30.122Z,0.95
2022-12-07T09:28:33.226Z,1.17
2022-12-07T09:31:37.633Z,0.82
2022-12-07T09:34:40.632Z,0.68
2022-12-07T09:37:43.797Z,0.77
2022-12-07T09:40:48.150Z,0.60
2022-12-07T09:43:50.985Z,1.23
2022-12-07T09:46:54.834Z,0.90
2022-12-07T09:50:00.846Z,0.98
2022-12-07T09:53:07.295Z,0.98
2022-12-07T09:56:13.599Z,1.48
2022-12-07T09:59:19.407Z,0.90
2022-12-07T10:02:26.511Z,1.10
2022-12-07T10:05:31.120Z,0.80
2022-12-07T10:08:34.130Z,0.90
2022-12-07T10:11:58.272Z,0.88
2022-12-07T10:15:07.986Z,0.68
2022-12-07T10:18:27.190Z,0.50
2022-12-07T10:21:29.964Z,1.35
2022-12-07T10:24:32.999Z,0.90
2022-12-07T10:27:40.478Z,0.85
2022-12-07T10:30:51.492Z,0.77
2022-12-07T10:33:55.355Z,1.05
2022-12-07T10:37:15.542Z,0.90
2022-12-07T10:40:29.024Z,0.98
2022-12-07T10:43:34.567Z,0.77
2022-12-07T10:46:48.261Z,1.00
2022-12-07T10:49:57.379Z,1.02
2022-12-07T10:53:04.119Z,0.90
2022-12-07T10:56:18.610Z,1.05
2022-12-07T10:59:35.569Z,1.17
2022-12-07T11:02:51.194Z,0.88
2022-12-07T11:06:00.181Z,1.30
2022-12-07T11:09:06.482Z,0.95
2022-12-07T11:12:13.637Z,0.68
2022-12-07T11:15:19.808Z,1.15
2022-12-07T11:18:25.955Z,1.20
2022-12-07T11:21:31.898Z,1.10
2022-12-07T11:24:40.293Z,1.30
2022-12-07T11:27:46.110Z,0.80
2022-12-07T11:30:56.615Z,1.10
2022-12-07T11:34:02.930Z,0.77
2022-12-07T11:37:13.576Z,0.90
2022-12-07T11:40:19.233Z,0.98
2022-12-07T11:43:24.871Z,1.00
2022-12-07T11:46:32.586Z,0.70
2022-12-07T11:49:42.031Z,1.20
2022-12-07T11:52:47.020Z,0.60
2022-12-07T11:55:52.399Z,0.77
2022-12-07T11:58:57.187Z,0.85
2022-12-07T12:02:06.058Z,1.05
2022-12-07T12:05:15.461Z,0.68
2022-12-07T12:15:22.743Z,1.00
2022-12-07T12:18:42.471Z,1.00
2022-12-07T12:21:46.841Z,0.90
2022-12-07T12:24:52.464Z,0.80
2022-12-07T12:27:56.471Z,0.70
2022-12-07T12:31:14.621Z,1.05
2022-12-07T12:34:35.609Z,0.82
2022-12-07T12:37:41.961Z,0.47
2022-12-07T12:41:00.543Z,0.80
2022-12-07T12:44:04.674Z,0.95
2022-12-07T12:47:25.252Z,0.88
2022-12-07T12:50:30.819Z,0.65
2022-12-07T12:53:42.200Z,0.98
2022-12-07T13:00:01.589Z,0.60
2022-12-07T13:03:25.120Z,0.80
2022-12-07T13:10:23.373Z,1.05
2022-12-07T13:13:54.573Z,0.90
2022-12-07T13:16:57.576Z,0.80
2022-12-07T13:20:04.646Z,0.63
2022-12-07T13:23:08.238Z,0.60
2022-12-07T13:26:18.196Z,0.82
2022-12-07T13:29:24.974Z,0.40
2022-12-07T13:32:30.606Z,1.40
2022-12-07T13:35:40.411Z,0.50
2022-12-07T13:38:50.290Z,0.60
2022-12-07T13:41:57.640Z,0.63
2022-12-07T13:45:02.173Z,0.70
2022-12-07T13:48:05.229Z,0.70
2022-12-07T13:51:20.157Z,0.80
2022-12-07T13:54:24.330Z,1.20
2022-12-07T13:57:29.508Z,0.70
2022-12-07T14:00:32.280Z,0.68
2022-12-07T14:03:45.706Z,0.55
2022-12-07T14:06:52.368Z,0.60
2022-12-07T14:09:56.278Z,0.40
2022-12-07T14:13:06.276Z,0.68
2022-12-07T14:16:21.240Z,0.45
2022-12-07T14:19:47.838Z,0.50
2022-12-07T14:22:56.942Z,0.68
2022-12-07T14:26:11.082Z,0.90
2022-12-07T14:29:39.512Z,0.57
2022-12-07T14:32:43.928Z,0.50
2022-12-07T14:35:46.545Z,0.50
2022-12-07T14:38:49.194Z,0.90
2022-12-07T14:41:56.806Z,0.30
2022-12-07T14:45:03.141Z,0.60
2022-12-07T14:54:57.295Z,0.65
2022-12-07T14:58:00.149Z,0.43
2022-12-07T15:04:32.713Z,0.80
2022-12-07T15:07:45.576Z,0.90
2022-12-07T15:10:54.601Z,0.88
2022-12-07T15:14:11.631Z,0.60
2022-12-07T15:17:27.801Z,0.90
2022-12-07T15:20:34.788Z,0.43
2022-12-07T15:23:37.387Z,0.52
2022-12-07T15:26:40.710Z,0.77
2022-12-07T15:29:43.371Z,0.35
2022-12-07T15:32:50.716Z,0.82
2022-12-07T15:35:53.523Z,0.60
2022-12-07T15:39:13.676Z,0.47
2022-12-07T15:42:17.175Z,0.50
2022-12-07T15:45:19.052Z,0.77
2022-12-07T15:48:28.348Z,0.65
2022-12-07T15:51:31.691Z,0.45
2022-12-07T15:54:34.386Z,0.70
2022-12-07T15:57:38.778Z,0.57
2022-12-07T16:00:42.272Z,0.32
2022-12-07T16:03:46.727Z,0.50
2022-12-07T16:06:50.865Z,0.57
2022-12-07T16:09:53.634Z,0.80
2022-12-07T16:12:56.275Z,0.80
2022-12-07T16:15:59.015Z,0.70
2022-12-07T16:19:04.032Z,0.47
2022-12-07T16:22:07.831Z,1.08
2022-12-07T16:25:10.741Z,0.52
2022-12-07T16:28:13.736Z,0.50
2022-12-07T16:31:18.148Z,1.10
2022-12-07T16:34:22.269Z,0.85
2022-12-07T16:37:29.844Z,0.80
2022-12-07T16:40:33.519Z,0.90
2022-12-07T16:43:36.548Z,1.00
2022-12-07T16:46:46.637Z,0.82
2022-12-07T16:49:50.862Z,0.77
2022-12-07T16:52:53.519Z,0.80
2022-12-07T16:55:56.344Z,0.50
2022-12-07T16:58:59.841Z,0.70
2022-12-07T17:02:14.178Z,0.50
2022-12-07T17:05:23.520Z,0.73
2022-12-07T17:08:27.029Z,0.90
2022-12-07T17:11:31.818Z,1.10
2022-12-07T17:14:54.606Z,1.33
2022-12-07T17:17:59.817Z,1.38
2022-12-07T17:21:05.963Z,0.95
2022-12-07T17:24:23.749Z,0.93
2022-12-07T17:27:30.624Z,1.02
2022-12-07T17:30:33.335Z,0.88
2022-12-07T17:33:36.235Z,0.90
2022-12-07T17:36:40.626Z,0.90
2022-12-07T17:39:43.596Z,0.90
2022-12-07T17:42:50.154Z,0.73
2022-12-07T17:45:52.943Z,0.80
2022-12-07T17:48:55.661Z,0.82
2022-12-07T17:52:18.195Z,1.02
2022-12-07T17:55:21.061Z,1.63
2022-12-07T17:58:23.842Z,1.25
2022-12-07T18:01:32.857Z,1.55
2022-12-07T18:04:37.418Z,1.33
2022-12-07T18:07:41.539Z,1.60
2022-12-07T18:10:44.510Z,1.20
2022-12-07T18:13:49.191Z,1.00
2022-12-07T18:16:52.133Z,1.25
2022-12-07T18:19:55.055Z,0.88
2022-12-07T18:22:59.129Z,1.17
2022-12-07T18:26:02.077Z,0.98
2022-12-07T18:29:08.748Z,0.88
2022-12-07T18:32:12.226Z,0.93
2022-12-07T18:35:15.288Z,1.15
2022-12-07T18:38:22.318Z,0.90
2022-12-07T18:41:25.401Z,0.85
2022-12-07T18:44:28.400Z,0.90
2022-12-07T18:47:32.276Z,1.67
2022-12-07T18:50:35.543Z,2.75
2022-12-07T18:53:39.868Z,2.95
2022-12-07T18:56:42.532Z,3.10
2022-12-07T19:00:02.412Z,2.75
2022-12-07T19:03:14.483Z,2.30
2022-12-07T19:06:19.477Z,1.98
2022-12-07T19:09:23.595Z,1.90
2022-12-07T19:12:27.243Z,1.85
2022-12-07T19:15:30.242Z,1.65
2022-12-07T19:18:33.707Z,1.55
2022-12-07T19:21:36.541Z,2.20
2022-12-07T19:24:41.546Z,2.35
2022-12-07T19:27:44.311Z,2.70
2022-12-07T19:30:47.847Z,2.03
2022-12-07T19:33:51.324Z,2.40
2022-12-07T19:36:54.031Z,2.67
2022-12-07T19:39:59.567Z,3.35
2022-12-07T19:43:02.255Z,4.00
2022-12-07T19:46:06.155Z,3.67
2022-12-07T19:49:09.247Z,3.03
2022-12-07T19:52:12.919Z,3.75
2022-12-07T19:55:17.070Z,3.80
2022-12-07T19:58:19.709Z,4.25
2022-12-07T20:01:22.524Z,4.38
2022-12-07T20:04:26.268Z,4.10
2022-12-07T20:07:38.138Z,3.17
2022-12-07T20:10:46.361Z,3.97
2022-12-07T20:13:51.528Z,4.95
2022-12-07T20:16:55.605Z,5.97
2022-12-07T20:20:01.217Z,4.22
2022-12-07T20:23:04.725Z,4.65
2022-12-07T20:26:10.687Z,4.45
2022-12-07T20:29:17.923Z,5.38
2022-12-07T20:32:21.563Z,5.78
2022-12-07T20:35:24.241Z,5.88
2022-12-07T20:38:27.949Z,4.93
2022-12-07T20:41:48.643Z,5.65
2022-12-07T20:44:51.583Z,4.68
2022-12-07T20:47:54.807Z,6.47
2022-12-07T20:51:05.677Z,5.32
2022-12-07T20:54:08.521Z,5.18
2022-12-07T20:57:12.643Z,4.93
2022-12-07T21:00:15.742Z,5.85
2022-12-07T21:03:18.429Z,5.15
2022-12-07T21:06:21.028Z,5.32
2022-12-07T21:09:26.841Z,5.95
2022-12-07T21:12:31.079Z,6.10
2022-12-07T21:15:33.766Z,5.82
2022-12-07T21:18:38.334Z,5.95
2022-12-07T21:21:41.692Z,4.65
2022-12-07T21:24:44.785Z,4.97
2022-12-07T21:27:49.132Z,5.32
2022-12-07T21:31:12.673Z,4.18
2022-12-07T21:34:14.635Z,4.70
2022-12-07T21:37:17.361Z,5.47
2022-12-07T21:40:20.147Z,4.90
2022-12-07T21:43:24.209Z,5.60
2022-12-07T21:46:33.337Z,5.40
2022-12-07T21:49:36.978Z,4.38
2022-12-07T21:52:39.666Z,4.78
2022-12-07T21:55:43.614Z,4.97
2022-12-07T21:58:48.657Z,4.32
2022-12-07T22:02:00.101Z,4.28
2022-12-07T22:05:04.503Z,4.25
2022-12-07T22:08:07.386Z,4.43
2022-12-07T22:11:12.192Z,4.15
2022-12-07T22:14:34.274Z,3.75
2022-12-07T22:17:37.119Z,3.65
2022-12-07T22:20:39.884Z,4.22
2022-12-07T22:23:44.089Z,4.10
2022-12-07T22:26:46.804Z,3.75
2022-12-07T22:29:50.878Z,4.20
2022-12-07T22:32:53.655Z,3.70
2022-12-07T22:35:56.458Z,4.72
2022-12-07T22:38:59.744Z,3.97
2022-12-07T22:42:02.453Z,3.90
2022-12-07T22:45:07.267Z,4.50
2022-12-07T22:48:10.077Z,3.72
2022-12-07T22:51:20.750Z,3.28
2022-12-07T22:54:23.394Z,3.70
2022-12-07T22:57:26.216Z,3.88
2022-12-07T23:00:30.653Z,3.58
2022-12-07T23:03:34.651Z,3.92
2022-12-07T23:06:37.563Z,4.28
2022-12-07T23:09:40.217Z,4.60
2022-12-07T23:13:08.906Z,3.67
2022-12-07T23:16:14.097Z,3.75
2022-12-07T23:19:17.443Z,3.25
2022-12-07T23:22:20.159Z,3.33
2022-12-07T23:25:23.453Z,3.28
2022-12-07T23:28:26.039Z,3.50
2022-12-07T23:31:33.256Z,3.22
2022-12-07T23:34:36.805Z,3.50
2022-12-07T23:37:39.596Z,3.15
2022-12-07T23:40:42.297Z,3.83
2022-12-07T23:43:45.150Z,3.13
2022-12-07T23:46:49.184Z,3.55
2022-12-07T23:49:51.959Z,3.55
2022-12-07T23:52:54.697Z,3.42
2022-12-07T23:55:57.401Z,2.92
2022-12-07T23:59:00.751Z,3.33
